Time;durP1;ratioP1;P1;durP2;ratioP2;P2;SDS_P1;SDS_P2;PMS_P1;PMS_P2;Temp;Humidity;BMP_temperature;BMP_pressure;BME280_temperature;BME280_humidity;BME280_pressure;Samples;Min_cycle;Max_cycle;Signal;HPM_P1;HPM_P2
2022/12/20 00:02:09;;;;;;;2.95;1.70;;;11.60;99.90;;;;;;5051003;28;20210;-43
2022/12/20 00:04:34;;;;;;;5.68;2.40;;;11.50;99.90;;;;;;5054053;28;20177;-43
2022/12/20 00:07:00;;;;;;;3.92;2.65;;;11.40;99.90;;;;;;5054922;28;20198;-44
2022/12/20 00:09:25;;;;;;;4.13;1.80;;;11.60;99.90;;;;;;5054902;28;20154;-43
2022/12/20 00:11:51;;;;;;;3.75;1.70;;;11.40;99.90;;;;;;5054776;28;20559;-43
2022/12/20 00:14:17;;;;;;;4.85;2.08;;;11.20;99.90;;;;;;5055210;28;20575;-44
2022/12/20 00:16:43;;;;;;;2.25;1.70;;;11.10;99.90;;;;;;5054988;28;20568;-43
2022/12/20 00:19:10;;;;;;;4.03;1.70;;;11.00;99.90;;;;;;5054806;28;20565;-45
2022/12/20 00:21:36;;;;;;;2.97;1.70;;;10.90;99.90;;;;;;5054917;28;20167;-42
2022/12/20 00:24:03;;;;;;;4.20;1.73;;;10.80;99.90;;;;;;5054830;28;20175;-43
2022/12/20 00:26:31;;;;;;;5.10;2.00;;;10.80;99.90;;;;;;5054821;28;20171;-43
2022/12/20 00:28:58;;;;;;;3.20;1.85;;;10.70;99.90;;;;;;5054569;28;20182;-43
2022/12/20 00:31:25;;;;;;;4.50;2.03;;;10.80;99.90;;;;;;5054746;28;20224;-44
2022/12/20 00:33:53;;;;;;;3.78;2.03;;;10.80;99.90;;;;;;5054426;28;20206;-44
2022/12/20 00:36:20;;;;;;;6.78;2.58;;;10.90;99.90;;;;;;5054754;28;20611;-43
2022/12/20 00:38:47;;;;;;;3.80;2.20;;;11.00;99.90;;;;;;5054716;28;20233;-43
2022/12/20 00:41:22;;;;;;;4.97;1.80;;;11.20;99.90;;;;;;5054287;28;20249;-46
2022/12/20 00:43:48;;;;;;;3.97;1.80;;;11.20;99.90;;;;;;5054939;28;20167;-44
2022/12/20 00:46:15;;;;;;;3.45;2.45;;;11.20;99.90;;;;;;5054548;28;20166;-44
2022/12/20 00:48:41;;;;;;;9.05;4.32;;;11.20;99.90;;;;;;5054163;28;20167;-44
2022/12/20 00:51:09;;;;;;;7.50;3.33;;;11.10;99.90;;;;;;5054054;28;20504;-43
2022/12/20 00:53:35;;;;;;;6.75;2.63;;;11.00;99.90;;;;;;5054011;28;20229;-47
2022/12/20 00:56:02;;;;;;;4.85;1.70;;;11.00;99.90;;;;;;5054062;28;20182;-45
2022/12/20 00:58:28;;;;;;;4.68;2.10;;;11.00;99.90;;;;;;5054218;28;20181;-43
2022/12/20 01:00:54;;;;;;;3.95;1.73;;;10.90;99.90;;;;;;5052532;28;20253;-44
2022/12/20 01:03:20;;;;;;;5.57;2.20;;;10.90;99.90;;;;;;5054134;28;20210;-43
2022/12/20 01:05:51;;;;;;;5.38;2.13;;;11.00;99.90;;;;;;5054168;28;20282;-43
2022/12/20 01:08:18;;;;;;;6.85;2.45;;;11.10;99.90;;;;;;5054500;28;20181;-43
2022/12/20 01:10:44;;;;;;;5.82;2.42;;;11.10;99.90;;;;;;5053715;28;20523;-42
2022/12/20 01:13:09;;;;;;;11.90;2.63;;;11.10;99.90;;;;;;5053704;28;20202;-42
2022/12/20 01:15:35;;;;;;;8.05;3.08;;;11.10;99.90;;;;;;5053618;28;20170;-43
2022/12/20 01:18:01;;;;;;;6.55;2.67;;;11.20;99.90;;;;;;5052380;28;20174;-43
2022/12/20 01:20:26;;;;;;;6.07;2.92;;;11.30;99.90;;;;;;5053654;28;20225;-42
2022/12/20 01:22:52;;;;;;;6.28;2.10;;;11.30;99.90;;;;;;5053726;28;20163;-42
2022/12/20 01:25:17;;;;;;;7.03;2.30;;;11.50;99.90;;;;;;5053854;28;20634;-43
2022/12/20 01:27:43;;;;;;;6.22;2.40;;;11.70;99.90;;;;;;5053359;28;20167;-42
2022/12/20 01:30:09;;;;;;;2.75;2.38;;;11.60;99.90;;;;;;5053474;28;20175;-43
2022/12/20 01:32:35;;;;;;;6.15;2.58;;;11.70;99.90;;;;;;5053358;28;20191;-43
2022/12/20 01:35:00;;;;;;;8.00;2.67;;;11.60;99.90;;;;;;5053429;28;20185;-42
2022/12/20 01:37:26;;;;;;;8.40;2.78;;;11.60;99.90;;;;;;5053355;28;20158;-42
2022/12/20 01:39:51;;;;;;;5.50;2.70;;;11.70;99.90;;;;;;5053245;28;20174;-42
2022/12/20 01:42:17;;;;;;;4.75;2.85;;;11.70;99.90;;;;;;5053604;28;20528;-42
2022/12/20 01:44:42;;;;;;;3.53;2.40;;;11.70;99.90;;;;;;5053197;28;20240;-43
2022/12/20 01:47:10;;;;;;;3.67;3.05;;;11.80;99.90;;;;;;5053145;28;20182;-43
2022/12/20 01:49:48;;;;;;;6.15;3.15;;;11.80;99.90;;;;;;5053087;28;20166;-42
2022/12/20 01:52:19;;;;;;;5.80;2.95;;;11.70;99.90;;;;;;5053015;28;20588;-43
2022/12/20 01:54:50;;;;;;;5.97;2.30;;;11.80;99.90;;;;;;5053340;28;20274;-43
2022/12/20 01:57:30;;;;;;;3.80;2.30;;;11.70;99.90;;;;;;5053311;28;20237;-43
2022/12/20 01:59:57;;;;;;;2.80;1.60;;;11.40;99.90;;;;;;5052901;28;20270;-43
2022/12/20 02:02:23;;;;;;;5.22;1.90;;;11.20;99.90;;;;;;5052649;28;20297;-43
2022/12/20 02:04:48;;;;;;;2.63;2.08;;;11.00;99.90;;;;;;5053140;28;20529;-43
2022/12/20 02:07:20;;;;;;;2.28;1.90;;;10.90;99.90;;;;;;5053013;28;20163;-43
2022/12/20 02:09:47;;;;;;;3.45;2.20;;;10.80;99.90;;;;;;5052936;28;20634;-43
2022/12/20 02:12:27;;;;;;;2.72;1.77;;;10.70;99.90;;;;;;5052621;28;20257;-42
2022/12/20 02:15:01;;;;;;;2.60;1.90;;;10.70;99.90;;;;;;5052510;28;20265;-43
2022/12/20 02:17:56;;;;;;;2.45;1.95;;;10.60;99.90;;;;;;5052566;28;20162;-43
2022/12/20 02:20:59;;;;;;;2.80;1.98;;;10.60;99.90;;;;;;5052436;28;20174;-43
2022/12/20 02:23:52;;;;;;;4.05;2.08;;;10.60;99.90;;;;;;5052439;28;20622;-43
2022/12/20 02:26:41;;;;;;;3.65;1.90;;;10.60;99.90;;;;;;5052011;28;20242;-43
2022/12/20 02:29:28;;;;;;;3.72;1.80;;;10.50;99.90;;;;;;5052160;28;20178;-42
2022/12/20 02:32:03;;;;;;;3.10;1.92;;;10.50;99.90;;;;;;5052276;28;20162;-43
2022/12/20 02:34:32;;;;;;;3.33;1.90;;;10.40;99.90;;;;;;5052157;28;20174;-43
2022/12/20 02:36:57;;;;;;;3.42;2.10;;;10.40;99.90;;;;;;5052082;28;20159;-42
2022/12/20 02:39:27;;;;;;;3.72;2.20;;;10.30;99.90;;;;;;5052011;28;20172;-42
2022/12/20 02:42:16;;;;;;;2.00;1.85;;;10.40;99.90;;;;;;5052017;28;20167;-43
2022/12/20 02:47:38;;;;;;;4.30;2.20;;;10.20;99.90;;;;;;5052155;28;20238;-43
2022/12/20 02:50:06;;;;;;;4.55;2.42;;;10.10;99.90;;;;;;5051856;28;20170;-43
2022/12/20 02:52:32;;;;;;;2.83;2.13;;;10.20;99.90;;;;;;5051834;28;20267;-43
2022/12/20 02:54:59;;;;;;;5.32;2.30;;;10.10;99.90;;;;;;5051586;28;20249;-43
2022/12/20 02:57:32;;;;;;;2.88;2.05;;;10.10;99.90;;;;;;5051817;28;20185;-43
2022/12/20 03:00:10;;;;;;;4.18;2.50;;;10.10;99.90;;;;;;5051806;28;20188;-43
2022/12/20 03:05:22;;;;;;;3.47;2.20;;;10.10;99.90;;;;;;5051714;28;20174;-42
2022/12/20 03:07:48;;;;;;;3.75;2.25;;;10.00;99.90;;;;;;5052021;28;20174;-42
2022/12/20 03:10:14;;;;;;;4.45;2.50;;;10.00;99.90;;;;;;5051918;28;20167;-42
2022/12/20 03:12:40;;;;;;;3.03;2.40;;;10.10;99.90;;;;;;5051592;28;20194;-42
2022/12/20 03:15:06;;;;;;;3.22;2.25;;;10.00;99.90;;;;;;5051566;28;20704;-42
2022/12/20 03:17:32;;;;;;;5.40;2.13;;;10.00;99.90;;;;;;5051902;28;20196;-42
2022/12/20 03:19:57;;;;;;;2.53;2.30;;;10.00;99.90;;;;;;5051601;28;20174;-42
2022/12/20 03:22:23;;;;;;;3.35;2.72;;;10.00;99.90;;;;;;5051529;28;20217;-42
2022/12/20 03:24:49;;;;;;;5.55;2.42;;;9.90;99.90;;;;;;5051856;28;20173;-47
2022/12/20 03:27:15;;;;;;;5.68;2.72;;;9.90;99.90;;;;;;5051815;28;20194;-45
2022/12/20 03:29:41;;;;;;;3.72;2.55;;;9.90;99.90;;;;;;5051515;28;20688;-46
2022/12/20 03:32:06;;;;;;;3.20;2.20;;;9.90;99.90;;;;;;5051427;28;20174;-46
2022/12/20 03:34:32;;;;;;;2.67;2.28;;;9.80;99.90;;;;;;5051463;28;20541;-47
2022/12/20 03:36:57;;;;;;;3.63;2.60;;;9.80;99.90;;;;;;5051794;28;20249;-44
2022/12/20 03:39:23;;;;;;;4.00;2.35;;;9.70;99.90;;;;;;5055734;28;20205;-43
2022/12/20 03:41:48;;;;;;;5.57;3.15;;;9.70;99.90;;;;;;5055721;28;20181;-43
2022/12/20 03:44:14;;;;;;;3.47;2.25;;;9.70;99.90;;;;;;5055730;28;20178;-44
2022/12/20 03:46:39;;;;;;;3.88;2.63;;;9.70;99.90;;;;;;5054139;28;20171;-44
2022/12/20 03:49:05;;;;;;;11.77;3.33;;;9.60;99.90;;;;;;5055305;28;20182;-46
2022/12/20 03:51:31;;;;;;;5.40;3.08;;;9.50;99.90;;;;;;5055259;28;20245;-44
2022/12/20 03:53:56;;;;;;;3.53;2.88;;;9.50;99.90;;;;;;5055222;28;20256;-44
2022/12/20 03:56:22;;;;;;;3.67;2.60;;;9.40;99.90;;;;;;5055218;28;20618;-44
2022/12/20 03:58:48;;;;;;;3.00;2.42;;;9.40;99.90;;;;;;5055536;28;20181;-43
2022/12/20 04:01:18;;;;;;;3.15;2.53;;;9.40;99.90;;;;;;5055308;28;20222;-43
2022/12/20 04:03:44;;;;;;;3.33;2.50;;;9.40;99.90;;;;;;5055523;28;20226;-43
2022/12/20 04:06:09;;;;;;;3.00;2.40;;;9.40;99.90;;;;;;5054970;28;20201;-43
2022/12/20 04:08:35;;;;;;;3.67;2.70;;;9.40;99.90;;;;;;5054972;28;20257;-43
2022/12/20 04:11:15;;;;;;;4.68;2.63;;;9.40;99.90;;;;;;5054945;28;20167;-43
2022/12/20 04:13:49;;;;;;;2.90;2.17;;;9.40;99.90;;;;;;5054843;28;20262;-43
2022/12/20 04:16:17;;;;;;;4.22;2.47;;;9.40;99.90;;;;;;5055063;28;20181;-44
2022/12/20 04:18:43;;;;;;;2.70;2.50;;;9.40;99.90;;;;;;5054838;28;20225;-44
2022/12/20 04:21:10;;;;;;;7.90;3.47;;;9.40;99.90;;;;;;5054681;28;20568;-43
2022/12/20 04:23:37;;;;;;;9.40;4.30;;;9.40;99.90;;;;;;5054863;28;20630;-43
2022/12/20 04:26:05;;;;;;;16.15;6.90;;;9.40;99.90;;;;;;5054587;28;20182;-45
2022/12/20 04:28:30;;;;;;;12.98;7.00;;;9.30;99.90;;;;;;5054546;28;20170;-44
2022/12/20 04:30:56;;;;;;;10.85;6.15;;;9.30;99.90;;;;;;5054551;28;20178;-43
2022/12/20 04:33:22;;;;;;;11.25;6.07;;;9.30;99.90;;;;;;5054338;28;20236;-44
2022/12/20 04:35:48;;;;;;;6.97;4.70;;;9.30;99.90;;;;;;5055024;28;20532;-44
2022/12/20 04:38:14;;;;;;;6.40;3.38;;;9.20;99.90;;;;;;5054671;28;20257;-46
2022/12/20 04:40:39;;;;;;;4.07;2.58;;;9.30;99.90;;;;;;5054327;28;20173;-45
2022/12/20 04:43:05;;;;;;;5.78;3.00;;;9.20;99.90;;;;;;5054602;28;20261;-43
2022/12/20 04:45:30;;;;;;;5.18;3.10;;;9.30;99.90;;;;;;5054283;28;20576;-43
2022/12/20 04:47:56;;;;;;;4.13;2.40;;;9.20;99.90;;;;;;5054281;28;20522;-43
2022/12/20 04:50:22;;;;;;;8.77;3.10;;;9.20;99.90;;;;;;5053323;28;20163;-46
2022/12/20 04:55:37;;;;;;;4.88;2.58;;;9.30;99.90;;;;;;5054047;28;20185;-43
2022/12/20 04:58:02;;;;;;;3.75;2.33;;;9.30;99.90;;;;;;5053999;28;20167;-43
2022/12/20 05:00:28;;;;;;;4.53;2.30;;;9.30;99.90;;;;;;5053969;28;20591;-46
2022/12/20 05:02:53;;;;;;;2.65;2.38;;;9.30;99.90;;;;;;5053765;28;20625;-43
2022/12/20 05:05:19;;;;;;;4.90;2.80;;;9.40;99.90;;;;;;5053699;28;20248;-42
2022/12/20 05:07:45;;;;;;;4.68;2.40;;;9.30;99.90;;;;;;5054179;28;20170;-44
2022/12/20 05:10:10;;;;;;;4.65;2.40;;;9.30;99.90;;;;;;5053880;28;20650;-44
2022/12/20 05:12:36;;;;;;;4.05;2.47;;;9.30;99.90;;;;;;5053624;28;20570;-43
2022/12/20 05:15:02;;;;;;;4.22;2.75;;;9.30;99.90;;;;;;5053678;28;20241;-44
2022/12/20 05:17:27;;;;;;;7.40;3.83;;;9.20;99.90;;;;;;5053631;28;20170;-43
2022/12/20 05:19:53;;;;;;;3.40;2.92;;;9.10;99.90;;;;;;5053676;28;20208;-43
2022/12/20 05:27:48;;;;;;;6.55;3.10;;;8.90;99.90;;;;;;5054066;28;20246;-44
2022/12/20 05:30:14;;;;;;;5.40;3.88;;;8.90;99.90;;;;;;5054125;28;20162;-43
2022/12/20 05:32:40;;;;;;;8.15;3.63;;;8.90;99.90;;;;;;5053419;28;20203;-42
2022/12/20 05:35:06;;;;;;;5.97;3.97;;;8.90;99.90;;;;;;5053373;28;20185;-43
2022/12/20 05:37:32;;;;;;;7.47;3.97;;;8.80;99.90;;;;;;5053322;28;20176;-43
2022/12/20 05:39:57;;;;;;;6.72;3.92;;;8.80;99.90;;;;;;5053307;28;20170;-43
2022/12/20 05:42:23;;;;;;;7.38;4.05;;;8.80;99.90;;;;;;5053256;28;20162;-42
2022/12/20 05:44:48;;;;;;;7.90;3.60;;;8.80;99.90;;;;;;5053100;28;20618;-42
2022/12/20 05:47:14;;;;;;;7.82;3.67;;;8.80;99.90;;;;;;5053360;28;20194;-44
2022/12/20 05:49:39;;;;;;;5.22;3.35;;;8.80;99.90;;;;;;5053038;28;20175;-43
2022/12/20 05:52:05;;;;;;;5.50;3.95;;;8.80;99.90;;;;;;5052818;28;20171;-43
2022/12/20 05:54:31;;;;;;;3.40;2.95;;;8.90;99.90;;;;;;5052820;28;20170;-43
2022/12/20 05:56:56;;;;;;;5.70;3.35;;;8.90;99.90;;;;;;5053014;28;20166;-43
2022/12/20 05:59:22;;;;;;;6.05;2.83;;;8.90;99.90;;;;;;5052751;28;20258;-43
2022/12/20 06:01:47;;;;;;;3.80;3.17;;;9.00;99.90;;;;;;5052802;28;20219;-43
2022/12/20 06:04:13;;;;;;;17.35;6.40;;;9.10;99.90;;;;;;5052981;28;20171;-42
2022/12/20 06:06:38;;;;;;;7.22;4.38;;;9.20;99.90;;;;;;5052665;28;20177;-43
2022/12/20 06:09:04;;;;;;;8.18;4.38;;;9.20;99.90;;;;;;5052655;28;20167;-43
2022/12/20 06:11:29;;;;;;;10.90;5.20;;;9.30;99.90;;;;;;5052718;28;20166;-45
2022/12/20 06:13:55;;;;;;;3.47;2.45;;;9.30;99.90;;;;;;5052518;28;20280;-44
2022/12/20 06:16:22;;;;;;;9.73;5.45;;;9.50;99.90;;;;;;5052513;28;20635;-43
2022/12/20 06:18:48;;;;;;;7.15;2.50;;;9.50;99.90;;;;;;5052763;28;20166;-43
2022/12/20 06:21:14;;;;;;;2.90;2.22;;;9.60;99.90;;;;;;5052847;28;20530;-43
2022/12/20 06:23:40;;;;;;;4.13;2.78;;;9.60;99.90;;;;;;5052388;28;20179;-43
2022/12/20 06:26:08;;;;;;;5.85;2.50;;;9.60;99.90;;;;;;5052318;28;20616;-43
2022/12/20 06:28:34;;;;;;;5.95;2.67;;;9.60;99.90;;;;;;5052210;28;20528;-42
2022/12/20 06:31:00;;;;;;;3.35;2.33;;;9.60;99.90;;;;;;5052470;28;20594;-43
2022/12/20 06:33:25;;;;;;;3.53;2.60;;;9.60;99.90;;;;;;5052134;28;20230;-43
2022/12/20 06:35:51;;;;;;;4.28;2.85;;;9.60;99.90;;;;;;5052074;28;20623;-43
2022/12/20 06:38:17;;;;;;;3.38;2.53;;;9.60;99.90;;;;;;5052512;28;20167;-43
2022/12/20 06:40:43;;;;;;;5.35;3.08;;;9.70;99.90;;;;;;5052563;28;20171;-42
2022/12/20 06:43:08;;;;;;;5.85;2.72;;;9.70;99.90;;;;;;5051844;28;20616;-43
2022/12/20 06:45:34;;;;;;;3.92;2.60;;;9.70;99.90;;;;;;5051929;28;20654;-43
2022/12/20 06:48:00;;;;;;;3.95;2.75;;;9.70;99.90;;;;;;5051956;28;20162;-43
2022/12/20 06:50:26;;;;;;;8.70;5.03;;;9.70;99.90;;;;;;5051925;28;20174;-43
2022/12/20 06:52:52;;;;;;;3.50;2.50;;;9.70;99.90;;;;;;5051918;28;20210;-43
2022/12/20 06:55:17;;;;;;;4.13;2.67;;;9.70;99.90;;;;;;5051827;28;20169;-43
2022/12/20 06:57:43;;;;;;;3.33;2.25;;;9.70;99.90;;;;;;5052234;28;20215;-43
2022/12/20 07:00:09;;;;;;;6.45;3.90;;;9.70;99.90;;;;;;5052090;28;20296;-43
2022/12/20 07:02:35;;;;;;;5.53;3.33;;;9.70;99.90;;;;;;5051607;28;20206;-43
2022/12/20 07:05:01;;;;;;;4.60;2.50;;;9.70;99.90;;;;;;5051796;28;20189;-43
2022/12/20 07:07:26;;;;;;;3.22;2.40;;;9.70;99.90;;;;;;5051747;28;20159;-42
2022/12/20 07:09:52;;;;;;;6.22;4.00;;;9.70;99.90;;;;;;5051610;28;20623;-43
2022/12/20 07:12:17;;;;;;;7.57;3.63;;;9.70;99.90;;;;;;5051067;28;20171;-42
2022/12/20 07:14:43;;;;;;;8.65;4.97;;;9.70;99.90;;;;;;5051952;28;20185;-43
2022/12/20 07:17:10;;;;;;;6.18;3.05;;;9.70;99.90;;;;;;5051538;28;20208;-49
2022/12/20 07:19:35;;;;;;;2.63;2.20;;;9.80;99.90;;;;;;5051555;28;20163;-43
2022/12/20 07:22:02;;;;;;;5.68;2.38;;;9.80;99.90;;;;;;5049542;28;20519;-43
2022/12/20 07:24:28;;;;;;;5.05;2.30;;;9.80;99.90;;;;;;5049908;28;20182;-43
2022/12/20 07:26:53;;;;;;;3.90;2.80;;;9.80;99.90;;;;;;5049677;28;20641;-44
2022/12/20 07:29:19;;;;;;;3.40;2.00;;;9.80;99.90;;;;;;5049618;28;20245;-44
2022/12/20 07:31:44;;;;;;;4.03;2.60;;;9.70;99.90;;;;;;5049986;28;20537;-44
2022/12/20 07:34:10;;;;;;;3.15;2.20;;;9.70;99.90;;;;;;5049749;28;20214;-43
2022/12/20 07:36:36;;;;;;;4.07;2.00;;;9.70;99.90;;;;;;5049958;28;20572;-42
2022/12/20 07:39:02;;;;;;;6.25;3.05;;;9.80;99.90;;;;;;5049425;28;20178;-43
2022/12/20 07:41:28;;;;;;;3.10;2.38;;;9.80;99.90;;;;;;5049636;28;20167;-44
2022/12/20 07:43:53;;;;;;;6.40;2.80;;;9.80;99.90;;;;;;5049563;28;20167;-43
2022/12/20 07:46:20;;;;;;;3.78;2.40;;;9.70;99.90;;;;;;5049483;28;20527;-44
2022/12/20 07:48:45;;;;;;;6.90;2.95;;;9.80;99.90;;;;;;5049904;28;20179;-44
2022/12/20 07:51:18;;;;;;;2.33;2.08;;;9.80;99.90;;;;;;5050589;28;20163;-43
2022/12/20 07:53:54;;;;;;;5.05;2.58;;;9.70;99.90;;;;;;5051567;28;20209;-45
2022/12/20 07:56:21;;;;;;;4.18;2.88;;;9.80;99.90;;;;;;5051241;28;20188;-44
2022/12/20 07:58:50;;;;;;;3.00;2.30;;;9.80;99.90;;;;;;5051563;28;20173;-43
2022/12/20 08:01:16;;;;;;;3.30;2.38;;;9.90;99.90;;;;;;5051305;28;20734;-43
2022/12/20 08:03:48;;;;;;;5.50;3.10;;;9.90;99.90;;;;;;5051129;28;20206;-43
2022/12/20 08:06:15;;;;;;;3.25;2.22;;;9.90;99.90;;;;;;5051404;28;20170;-43
2022/12/20 08:08:43;;;;;;;9.48;3.78;;;9.90;99.90;;;;;;5051168;28;20183;-44
2022/12/20 08:11:10;;;;;;;5.20;3.33;;;9.90;99.90;;;;;;5051017;28;20177;-45
2022/12/20 08:13:36;;;;;;;5.30;3.28;;;9.90;99.90;;;;;;5051070;28;20208;-46
2022/12/20 08:16:02;;;;;;;4.65;2.92;;;9.90;99.90;;;;;;5051275;28;20584;-43
2022/12/20 08:18:27;;;;;;;6.25;3.08;;;9.90;99.90;;;;;;5051106;28;20250;-43
2022/12/20 08:20:53;;;;;;;5.55;3.10;;;9.90;99.90;;;;;;5051019;28;20171;-44
2022/12/20 08:23:18;;;;;;;4.47;2.90;;;9.90;99.90;;;;;;5050991;28;20166;-44
2022/12/20 08:25:44;;;;;;;6.63;3.10;;;9.90;99.90;;;;;;5054274;28;20174;-46
2022/12/20 08:28:10;;;;;;;5.10;2.45;;;9.90;99.90;;;;;;5054567;28;20162;-45
2022/12/20 08:30:35;;;;;;;4.95;3.40;;;9.90;99.90;;;;;;5054536;28;20178;-43
2022/12/20 08:33:01;;;;;;;6.78;2.08;;;10.00;99.90;;;;;;5054394;28;20226;-43
2022/12/20 08:35:27;;;;;;;9.60;3.75;;;10.00;99.90;;;;;;5054440;28;20507;-44
2022/12/20 08:37:52;;;;;;;4.50;2.65;;;9.90;99.90;;;;;;5054357;28;20653;-43
2022/12/20 08:40:19;;;;;;;3.13;2.22;;;9.90;99.90;;;;;;5054429;28;20301;-43
2022/12/20 08:42:44;;;;;;;3.47;2.05;;;10.00;99.90;;;;;;5054710;28;20645;-45
2022/12/20 08:45:11;;;;;;;3.38;2.53;;;10.00;99.90;;;;;;5054234;28;20257;-44
2022/12/20 08:47:36;;;;;;;2.53;2.30;;;10.00;99.90;;;;;;5054392;28;20171;-43
2022/12/20 08:50:02;;;;;;;10.15;3.17;;;10.10;99.90;;;;;;5054091;28;20534;-44
2022/12/20 08:52:28;;;;;;;8.23;2.75;;;10.10;99.90;;;;;;5054035;28;20181;-44
2022/12/20 08:54:54;;;;;;;2.92;2.05;;;10.10;99.90;;;;;;5053931;28;20177;-43
2022/12/20 08:57:20;;;;;;;3.35;1.90;;;10.10;99.90;;;;;;5053968;28;20246;-44
2022/12/20 08:59:45;;;;;;;6.30;2.88;;;10.10;99.90;;;;;;5054367;28;20193;-43
2022/12/20 09:02:11;;;;;;;4.85;2.38;;;10.10;99.90;;;;;;5053762;28;20218;-44
2022/12/20 09:04:36;;;;;;;3.03;2.17;;;10.10;99.90;;;;;;5053966;28;20605;-43
2022/12/20 09:07:02;;;;;;;6.70;2.85;;;10.20;99.90;;;;;;5054092;28;20224;-44
2022/12/20 09:09:27;;;;;;;2.83;2.00;;;10.20;99.90;;;;;;5053873;28;20189;-43
2022/12/20 09:11:53;;;;;;;4.35;2.35;;;10.20;99.90;;;;;;5053845;28;20167;-44
2022/12/20 09:14:19;;;;;;;3.55;2.20;;;10.20;99.90;;;;;;5053646;28;20206;-43
2022/12/20 09:16:44;;;;;;;4.18;2.75;;;10.20;99.90;;;;;;5054088;28;20197;-43
2022/12/20 09:19:12;;;;;;;5.43;2.22;;;10.20;99.90;;;;;;5052364;28;20716;-44
2022/12/20 09:21:38;;;;;;;2.00;1.67;;;10.20;99.90;;;;;;5053576;28;20193;-43
2022/12/20 09:24:05;;;;;;;2.90;2.00;;;10.20;99.90;;;;;;5053552;28;20202;-44
2022/12/20 09:26:31;;;;;;;5.60;1.90;;;10.10;99.90;;;;;;5053757;28;20181;-43
2022/12/20 09:28:57;;;;;;;3.25;1.90;;;10.20;99.90;;;;;;5053751;28;20249;-45
2022/12/20 09:31:24;;;;;;;6.65;2.92;;;10.20;99.90;;;;;;5053655;28;20175;-44
2022/12/20 09:33:59;;;;;;;3.83;2.38;;;10.30;99.90;;;;;;5053320;28;20206;-44
2022/12/20 09:36:27;;;;;;;2.88;2.38;;;10.30;99.90;;;;;;5053008;28;20171;-45
2022/12/20 09:38:53;;;;;;;4.22;2.75;;;10.30;99.90;;;;;;5053121;28;20174;-45
2022/12/20 09:41:28;;;;;;;5.90;3.13;;;10.30;99.90;;;;;;5053273;28;20642;-45
2022/12/20 09:43:54;;;;;;;4.53;3.03;;;10.30;99.90;;;;;;5053426;28;20253;-43
2022/12/20 09:46:22;;;;;;;11.32;4.57;;;10.30;99.90;;;;;;5053102;28;20282;-45
2022/12/20 09:48:48;;;;;;;9.75;4.13;;;10.30;99.90;;;;;;5053180;28;20179;-43
2022/12/20 09:51:25;;;;;;;3.85;1.77;;;10.30;99.90;;;;;;5053239;28;20237;-44
2022/12/20 09:54:21;;;;;;;4.80;2.38;;;10.30;99.90;;;;;;5052919;28;20578;-43
2022/12/20 09:57:18;;;;;;;10.50;5.07;;;10.30;99.90;;;;;;5053452;28;20178;-44
2022/12/20 09:59:44;;;;;;;8.13;4.05;;;10.30;99.90;;;;;;5043203;28;20182;-43
2022/12/20 10:02:11;;;;;;;6.53;3.42;;;10.20;99.90;;;;;;5052717;28;20607;-44
2022/12/20 10:04:41;;;;;;;4.47;2.80;;;10.30;99.90;;;;;;5052793;28;20217;-46
2022/12/20 10:07:25;;;;;;;3.40;1.90;;;10.30;99.90;;;;;;5053032;28;20574;-44
2022/12/20 10:10:00;;;;;;;3.00;1.80;;;10.30;99.90;;;;;;5052824;28;20241;-44
2022/12/20 10:12:44;;;;;;;6.28;2.25;;;10.30;99.90;;;;;;5052558;28;20162;-44
2022/12/20 10:15:18;;;;;;;3.13;1.88;;;10.30;99.90;;;;;;5052592;28;20166;-44
2022/12/20 10:18:10;;;;;;;4.05;2.33;;;10.30;99.90;;;;;;5052800;28;20167;-43
2022/12/20 10:20:44;;;;;;;3.75;2.10;;;10.40;99.90;;;;;;5052442;28;20531;-43
2022/12/20 10:23:47;;;;;;;2.35;1.65;;;10.40;99.90;;;;;;5052314;28;20521;-44
2022/12/20 10:26:12;;;;;;;3.70;2.13;;;10.40;99.90;;;;;;5052785;28;20245;-43
2022/12/20 10:28:39;;;;;;;3.75;1.80;;;10.50;99.90;;;;;;5052528;28;20261;-44
2022/12/20 10:31:14;;;;;;;3.83;1.98;;;10.50;99.90;;;;;;5052205;28;20162;-43
2022/12/20 10:33:40;;;;;;;1.90;1.55;;;10.50;99.90;;;;;;5052235;28;20631;-43
2022/12/20 10:36:21;;;;;;;3.58;2.03;;;10.50;99.90;;;;;;5052135;28;20641;-43
2022/12/20 10:38:49;;;;;;;3.85;2.05;;;10.50;99.90;;;;;;5052086;28;20178;-43
2022/12/20 10:41:22;;;;;;;4.07;2.47;;;10.50;99.90;;;;;;5052449;28;20253;-44
2022/12/20 10:43:53;;;;;;;3.65;2.38;;;10.50;99.90;;;;;;5052178;28;20166;-43
2022/12/20 10:46:19;;;;;;;4.75;2.70;;;10.50;99.90;;;;;;5051719;28;20167;-43
2022/12/20 10:48:47;;;;;;;6.57;2.95;;;10.60;99.90;;;;;;5051982;28;20175;-43
2022/12/20 10:51:15;;;;;;;7.75;3.88;;;10.60;99.90;;;;;;5052562;28;20170;-43
2022/12/20 10:54:18;;;;;;;26.67;17.30;;;10.60;99.90;;;;;;5052063;28;20234;-43
2022/12/20 10:56:54;;;;;;;2.92;1.90;;;10.70;99.90;;;;;;5052241;28;20166;-45
2022/12/20 10:59:20;;;;;;;4.60;2.15;;;10.80;99.90;;;;;;5052077;28;20175;-43
2022/12/20 11:01:47;;;;;;;6.15;3.00;;;10.80;99.90;;;;;;5052064;28;20569;-43
2022/12/20 11:04:29;;;;;;;3.10;1.58;;;10.90;99.90;;;;;;5052134;28;20162;-43
2022/12/20 11:06:56;;;;;;;18.15;8.90;;;10.90;99.90;;;;;;5051889;28;20162;-43
2022/12/20 11:09:30;;;;;;;3.33;2.33;;;11.00;99.90;;;;;;5051811;28;20212;-43
2022/12/20 11:12:15;;;;;;;3.75;2.67;;;11.00;99.90;;;;;;5051973;28;20235;-43
2022/12/20 11:14:43;;;;;;;5.47;2.88;;;11.10;99.90;;;;;;5052028;28;20174;-43
2022/12/20 11:17:30;;;;;;;3.08;2.03;;;11.10;99.90;;;;;;5051676;28;20622;-42
2022/12/20 11:20:32;;;;;;;10.57;4.93;;;11.20;99.90;;;;;;5051625;28;20178;-43
2022/12/20 11:23:07;;;;;;;3.58;1.73;;;11.20;99.90;;;;;;5051505;28;20264;-43
2022/12/20 11:25:46;;;;;;;6.68;2.22;;;11.40;99.90;;;;;;5051811;28;20235;-43
2022/12/20 11:28:33;;;;;;;8.00;3.08;;;11.40;99.90;;;;;;5051739;28;20224;-43
2022/12/20 11:31:23;;;;;;;5.50;2.47;;;11.50;99.90;;;;;;5051149;28;20171;-43
2022/12/20 11:34:13;;;;;;;6.32;2.45;;;11.60;99.90;;;;;;5051444;28;20203;-43
2022/12/20 11:37:06;;;;;;;5.32;2.30;;;11.70;99.90;;;;;;5051425;28;20171;-43
2022/12/20 11:39:53;;;;;;;3.50;2.17;;;11.90;99.90;;;;;;5051636;28;20170;-44
2022/12/20 11:42:47;;;;;;;4.55;1.95;;;12.00;99.90;;;;;;5051554;28;20200;-45
2022/12/20 11:45:44;;;;;;;4.10;2.25;;;12.10;99.90;;;;;;5051767;28;20166;-44
2022/12/20 11:48:33;;;;;;;7.18;2.60;;;12.10;99.90;;;;;;5051354;28;20257;-43
2022/12/20 11:51:07;;;;;;;4.75;2.47;;;12.20;99.90;;;;;;5051152;28;20171;-44
2022/12/20 11:53:51;;;;;;;8.80;3.38;;;12.20;99.90;;;;;;5051421;28;20210;-44
2022/12/20 11:56:23;;;;;;;8.52;3.00;;;12.10;99.90;;;;;;5051405;28;20573;-43
2022/12/20 11:59:15;;;;;;;5.75;2.90;;;12.20;99.90;;;;;;5052834;28;20171;-44
2022/12/20 12:01:59;;;;;;;4.38;1.92;;;12.10;99.90;;;;;;5043764;28;20618;-44
2022/12/20 12:04:29;;;;;;;7.53;2.78;;;12.20;99.90;;;;;;5055112;28;20220;-46
2022/12/20 12:07:06;;;;;;;3.97;2.20;;;12.10;99.90;;;;;;5054852;28;20564;-44
2022/12/20 12:10:02;;;;;;;4.55;2.22;;;12.10;99.90;;;;;;5054744;28;20170;-46
2022/12/20 12:12:42;;;;;;;5.10;1.88;;;12.10;99.90;;;;;;5054803;28;20165;-45
2022/12/20 12:15:14;;;;;;;3.15;2.03;;;12.10;99.90;;;;;;5054857;28;20225;-47
2022/12/20 12:17:49;;;;;;;2.95;1.58;;;12.10;99.90;;;;;;5054780;28;20163;-44
2022/12/20 12:20:24;;;;;;;4.65;2.28;;;12.10;99.90;;;;;;5055102;28;20628;-43
2022/12/20 12:22:58;;;;;;;2.28;1.60;;;12.20;99.90;;;;;;5054941;28;20257;-47
2022/12/20 12:25:23;;;;;;;6.13;1.98;;;12.20;99.90;;;;;;5054631;28;20202;-44
2022/12/20 12:27:49;;;;;;;4.60;2.20;;;12.20;99.90;;;;;;5054395;28;20167;-43
2022/12/20 12:30:16;;;;;;;4.63;1.85;;;12.10;99.90;;;;;;5054885;28;20166;-44
2022/12/20 12:32:44;;;;;;;9.25;2.08;;;15.10;99.90;;;;;;5054894;28;20197;-43
2022/12/20 12:35:16;;;;;;;6.38;1.75;;;12.00;99.90;;;;;;5054380;28;20535;-43
2022/12/20 12:38:01;;;;;;;4.00;1.95;;;12.00;99.90;;;;;;5054813;28;20205;-43
2022/12/20 12:40:26;;;;;;;5.72;2.25;;;12.00;99.90;;;;;;5054303;28;20177;-43
2022/12/20 12:43:29;;;;;;;5.65;2.90;;;11.80;99.90;;;;;;5054368;28;20253;-44
2022/12/20 12:46:01;;;;;;;5.88;2.58;;;11.80;99.90;;;;;;5054283;28;20173;-43
2022/12/20 12:48:33;;;;;;;10.05;3.13;;;11.70;99.90;;;;;;5053716;28;20254;-43
2022/12/20 12:51:01;;;;;;;4.90;2.65;;;11.60;99.90;;;;;;5053271;28;20258;-43
2022/12/20 12:54:01;;;;;;;10.85;2.95;;;11.70;99.90;;;;;;5053842;28;20217;-44
2022/12/20 12:56:27;;;;;;;6.22;2.80;;;11.80;99.90;;;;;;5053463;28;20185;-43
2022/12/20 12:59:04;;;;;;;13.30;4.07;;;11.90;99.90;;;;;;5053800;28;20253;-43
2022/12/20 13:01:45;;;;;;;7.80;3.88;;;11.90;99.90;;;;;;5053473;28;20225;-43
2022/12/20 13:04:23;;;;;;;13.38;4.78;;;11.90;99.90;;;;;;5053872;28;20162;-44
2022/12/20 13:06:56;;;;;;;7.50;3.25;;;11.90;99.90;;;;;;5052966;28;20175;-43
2022/12/20 13:09:24;;;;;;;10.05;3.33;;;11.90;99.90;;;;;;5053316;28;20685;-43
2022/12/20 13:11:52;;;;;;;9.25;4.03;;;11.80;99.90;;;;;;5052744;28;20175;-44
2022/12/20 13:14:24;;;;;;;10.63;3.90;;;11.90;99.90;;;;;;5053591;28;20219;-43
2022/12/20 13:17:13;;;;;;;9.65;5.13;;;11.80;99.90;;;;;;5053312;28;20173;-44
2022/12/20 13:19:49;;;;;;;6.15;3.35;;;11.90;99.90;;;;;;5053040;28;20181;-42